Pagrindinis puslapis
METAR-TAF:

METAR-TAF

Oro uostai :

Unalaška, Aliaska, Jungtinės Amerikos Valstijos

platuma: 53-54N, ilguma: 166-32W, Aukštis: 7 m

Dabartinis oras

Ataskaita buvo paskelbta 52 minutes, ne 03:56 UTC
Vėjas 7 kt iš Vakarų/Šiaurės Vakarų
Temperatūra 11°C
Drėgmė 62%
Slėgis 1011 hPa
Matomumas: 16.1 km
Mažai debesys ne aukštis 2000 ft
Su prošvaistėmis ne aukštis 4000 ft

METAR: PADU 210356Z 29007KT 10SM FEW020 BKN040 11/04 A2984 RMK AO2 SLP108 T01110044

Laikas: 20:48 (04:48 UTC)

Prognozė

Ataskaita buvo paskelbta 5 valandos ir 27 minutes, ne 23:21 UTC
Prognozė galioja nuo 21 metu 00 UTC su 21 metu 24 UTC
Vėjas 8 kt iš Šiaurės Vakarų
Matomumas: 10 km
Mažai debesys ne aukštis 600 ft
Su prošvaistėmis ne aukštis 2000 ft
Apsiniaukę ne aukštis 4000 ft
Nuo 21 metu 0800 UTC
Vėjas 5 kt iš Pietvakarių
Matomumas: 10 km
Išsisklaidę debesys ne aukštis 2500 ft
Išsisklaidę debesys ne aukštis 25000 ft

TAF: PADU 202321Z 2100/2124 32008KT P6SM FEW006 BKN020 OVC040 FM210800 23005KT P6SM SCT025 SCT250

Orai ataskaitas ir orų prognozės (METAR, TAF).

turimą stotys yra geltonos ir raudonos taškus žemėlapyje.

Perkelti pele per norėdami pamatyti stoties vardą.

Tada spustelėkite, norėdami matyti oro stebėjimo ir prognozės.

Norėdami pakeisti žemėlapį: spustelėkite ant žalios mygtukų su juodo kryžiaus žemyn,; žalią mygtuką su brūkšneliu, jei norite nutolinti; arba žalių rodyklių gretimoms žemėlapius.


METAR-TAF: